sensor_id;sensor_type;location;lat;lon;timestamp;temperature;humidity
69800;DHT22;67217;51.008;4.644;2023-02-01T00:01:11;7.30;84.70
69800;DHT22;67217;51.008;4.644;2023-02-01T00:03:39;7.30;84.60
69800;DHT22;67217;51.008;4.644;2023-02-01T00:06:07;7.20;84.80
69800;DHT22;67217;51.008;4.644;2023-02-01T00:08:35;7.40;84.30
69800;DHT22;67217;51.008;4.644;2023-02-01T00:11:08;7.40;84.20
69800;DHT22;67217;51.008;4.644;2023-02-01T00:13:38;7.30;84.10
69800;DHT22;67217;51.008;4.644;2023-02-01T00:16:12;7.30;84.20
69800;DHT22;67217;51.008;4.644;2023-02-01T00:18:38;7.30;84.70
69800;DHT22;67217;51.008;4.644;2023-02-01T00:21:06;7.30;84.50
69800;DHT22;67217;51.008;4.644;2023-02-01T00:23:35;7.50;84.10
69800;DHT22;67217;51.008;4.644;2023-02-01T00:26:09;7.40;83.70
69800;DHT22;67217;51.008;4.644;2023-02-01T00:28:36;7.50;83.20
69800;DHT22;67217;51.008;4.644;2023-02-01T00:31:04;7.60;82.80
69800;DHT22;67217;51.008;4.644;2023-02-01T00:33:33;7.50;82.90
69800;DHT22;67217;51.008;4.644;2023-02-01T00:36:03;7.50;82.50
69800;DHT22;67217;51.008;4.644;2023-02-01T00:38:30;7.50;82.50
69800;DHT22;67217;51.008;4.644;2023-02-01T00:41:13;7.60;82.40
69800;DHT22;67217;51.008;4.644;2023-02-01T00:43:42;7.60;82.10
69800;DHT22;67217;51.008;4.644;2023-02-01T00:46:12;7.60;82.30
69800;DHT22;67217;51.008;4.644;2023-02-01T00:48:40;7.70;81.70
69800;DHT22;67217;51.008;4.644;2023-02-01T00:51:11;7.60;81.80
69800;DHT22;67217;51.008;4.644;2023-02-01T00:53:39;7.40;82.40
69800;DHT22;67217;51.008;4.644;2023-02-01T00:56:08;7.30;82.30
69800;DHT22;67217;51.008;4.644;2023-02-01T00:58:36;7.20;82.60
69800;DHT22;67217;51.008;4.644;2023-02-01T01:01:06;7.20;82.50
69800;DHT22;67217;51.008;4.644;2023-02-01T01:03:37;7.10;82.60
69800;DHT22;67217;51.008;4.644;2023-02-01T01:06:08;7.10;82.30
69800;DHT22;67217;51.008;4.644;2023-02-01T01:08:36;7.10;82.20
69800;DHT22;67217;51.008;4.644;2023-02-01T01:11:07;7.10;82.10
69800;DHT22;67217;51.008;4.644;2023-02-01T01:13:35;7.20;81.80
69800;DHT22;67217;51.008;4.644;2023-02-01T01:16:04;7.20;81.60
69800;DHT22;67217;51.008;4.644;2023-02-01T01:18:33;7.30;80.80
69800;DHT22;67217;51.008;4.644;2023-02-01T01:21:03;7.40;80.20
69800;DHT22;67217;51.008;4.644;2023-02-01T01:23:32;7.50;79.80
69800;DHT22;67217;51.008;4.644;2023-02-01T01:26:00;7.50;80.10
69800;DHT22;67217;51.008;4.644;2023-02-01T01:28:27;7.60;79.50
69800;DHT22;67217;51.008;4.644;2023-02-01T01:30:55;7.60;78.90
69800;DHT22;67217;51.008;4.644;2023-02-01T01:33:23;7.60;79.20
69800;DHT22;67217;51.008;4.644;2023-02-01T01:35:52;7.50;79.00
69800;DHT22;67217;51.008;4.644;2023-02-01T01:38:20;7.60;78.80
69800;DHT22;67217;51.008;4.644;2023-02-01T01:40:48;7.60;78.50
69800;DHT22;67217;51.008;4.644;2023-02-01T01:43:21;7.50;78.90
69800;DHT22;67217;51.008;4.644;2023-02-01T01:45:49;7.40;79.00
69800;DHT22;67217;51.008;4.644;2023-02-01T01:48:25;7.40;79.10
69800;DHT22;67217;51.008;4.644;2023-02-01T01:51:05;7.60;78.80
69800;DHT22;67217;51.008;4.644;2023-02-01T01:53:37;7.50;78.70
69800;DHT22;67217;51.008;4.644;2023-02-01T01:56:05;7.60;78.30
69800;DHT22;67217;51.008;4.644;2023-02-01T01:58:33;7.50;78.90
69800;DHT22;67217;51.008;4.644;2023-02-01T02:01:01;7.50;77.90
69800;DHT22;67217;51.008;4.644;2023-02-01T02:03:45;7.50;77.70
69800;DHT22;67217;51.008;4.644;2023-02-01T02:06:27;7.50;77.40
69800;DHT22;67217;51.008;4.644;2023-02-01T02:08:54;7.50;77.10
69800;DHT22;67217;51.008;4.644;2023-02-01T02:11:22;7.40;76.90
69800;DHT22;67217;51.008;4.644;2023-02-01T02:13:53;7.30;77.20
69800;DHT22;67217;51.008;4.644;2023-02-01T02:16:45;7.30;77.30
69800;DHT22;67217;51.008;4.644;2023-02-01T02:33:52;6.90;77.40
69800;DHT22;67217;51.008;4.644;2023-02-01T02:36:51;6.80;77.80
69800;DHT22;67217;51.008;4.644;2023-02-01T02:42:11;6.90;76.90
69800;DHT22;67217;51.008;4.644;2023-02-01T02:45:04;6.80;76.90
69800;DHT22;67217;51.008;4.644;2023-02-01T02:50:40;6.70;77.60
69800;DHT22;67217;51.008;4.644;2023-02-01T02:56:19;6.60;77.60
69800;DHT22;67217;51.008;4.644;2023-02-01T02:59:07;6.50;77.90
69800;DHT22;67217;51.008;4.644;2023-02-01T03:01:54;6.60;77.70
69800;DHT22;67217;51.008;4.644;2023-02-01T03:04:40;6.50;77.90
69800;DHT22;67217;51.008;4.644;2023-02-01T03:10:03;6.50;78.30
69800;DHT22;67217;51.008;4.644;2023-02-01T03:12:33;6.40;78.30
69800;DHT22;67217;51.008;4.644;2023-02-01T03:15:26;6.40;78.60
69800;DHT22;67217;51.008;4.644;2023-02-01T03:17:51;6.40;78.50
69800;DHT22;67217;51.008;4.644;2023-02-01T03:20:19;6.40;78.50
69800;DHT22;67217;51.008;4.644;2023-02-01T03:22:48;6.40;78.30
69800;DHT22;67217;51.008;4.644;2023-02-01T03:25:25;6.40;78.20
69800;DHT22;67217;51.008;4.644;2023-02-01T03:28:06;6.50;77.60
69800;DHT22;67217;51.008;4.644;2023-02-01T03:30:36;6.40;78.10
69800;DHT22;67217;51.008;4.644;2023-02-01T03:33:06;6.40;78.10
69800;DHT22;67217;51.008;4.644;2023-02-01T03:35:44;6.50;78.10
69800;DHT22;67217;51.008;4.644;2023-02-01T03:38:25;6.50;77.60
69800;DHT22;67217;51.008;4.644;2023-02-01T03:41:10;6.50;77.70
69800;DHT22;67217;51.008;4.644;2023-02-01T03:43:48;6.50;77.50
69800;DHT22;67217;51.008;4.644;2023-02-01T03:46:14;6.50;77.90
69800;DHT22;67217;51.008;4.644;2023-02-01T03:48:44;6.50;78.00
69800;DHT22;67217;51.008;4.644;2023-02-01T03:51:13;6.50;78.00
69800;DHT22;67217;51.008;4.644;2023-02-01T03:53:42;6.40;78.20
69800;DHT22;67217;51.008;4.644;2023-02-01T03:56:13;6.30;78.60
69800;DHT22;67217;51.008;4.644;2023-02-01T03:58:42;6.40;78.80
69800;DHT22;67217;51.008;4.644;2023-02-01T04:01:11;6.40;78.60
69800;DHT22;67217;51.008;4.644;2023-02-01T04:03:40;6.50;78.10
69800;DHT22;67217;51.008;4.644;2023-02-01T04:06:07;6.50;78.00
69800;DHT22;67217;51.008;4.644;2023-02-01T04:08:35;6.40;78.50
69800;DHT22;67217;51.008;4.644;2023-02-01T04:11:03;6.40;78.70
69800;DHT22;67217;51.008;4.644;2023-02-01T04:13:31;6.40;78.60
69800;DHT22;67217;51.008;4.644;2023-02-01T04:15:58;6.40;78.60
69800;DHT22;67217;51.008;4.644;2023-02-01T04:18:26;6.40;78.60
69800;DHT22;67217;51.008;4.644;2023-02-01T04:20:54;6.30;78.90
69800;DHT22;67217;51.008;4.644;2023-02-01T04:23:22;6.30;79.30
69800;DHT22;67217;51.008;4.644;2023-02-01T04:25:51;6.30;79.00
69800;DHT22;67217;51.008;4.644;2023-02-01T04:28:19;6.20;79.30
69800;DHT22;67217;51.008;4.644;2023-02-01T04:30:47;6.20;79.50
69800;DHT22;67217;51.008;4.644;2023-02-01T04:33:15;6.30;79.30
69800;DHT22;67217;51.008;4.644;2023-02-01T04:35:42;6.20;79.40
69800;DHT22;67217;51.008;4.644;2023-02-01T04:38:10;6.20;79.80
69800;DHT22;67217;51.008;4.644;2023-02-01T04:40:38;6.20;79.80
69800;DHT22;67217;51.008;4.644;2023-02-01T04:43:07;6.20;79.70
69800;DHT22;67217;51.008;4.644;2023-02-01T04:45:35;6.20;79.50
69800;DHT22;67217;51.008;4.644;2023-02-01T04:48:02;6.20;79.40
69800;DHT22;67217;51.008;4.644;2023-02-01T04:50:30;6.20;79.40
69800;DHT22;67217;51.008;4.644;2023-02-01T04:52:58;6.10;79.90
69800;DHT22;67217;51.008;4.644;2023-02-01T04:55:26;6.00;80.50
69800;DHT22;67217;51.008;4.644;2023-02-01T04:57:54;6.10;80.20
69800;DHT22;67217;51.008;4.644;2023-02-01T05:00:23;6.20;80.00
69800;DHT22;67217;51.008;4.644;2023-02-01T05:02:51;6.20;79.80
69800;DHT22;67217;51.008;4.644;2023-02-01T05:05:18;6.10;80.10
69800;DHT22;67217;51.008;4.644;2023-02-01T05:07:46;6.20;80.00
69800;DHT22;67217;51.008;4.644;2023-02-01T05:10:14;6.20;79.80
69800;DHT22;67217;51.008;4.644;2023-02-01T05:12:44;6.20;79.60
69800;DHT22;67217;51.008;4.644;2023-02-01T05:15:29;6.10;79.80
69800;DHT22;67217;51.008;4.644;2023-02-01T05:17:58;6.10;79.90
69800;DHT22;67217;51.008;4.644;2023-02-01T05:20:25;6.00;80.30
69800;DHT22;67217;51.008;4.644;2023-02-01T05:22:53;6.10;80.10
69800;DHT22;67217;51.008;4.644;2023-02-01T05:25:21;6.00;80.30
69800;DHT22;67217;51.008;4.644;2023-02-01T05:27:49;6.00;80.60
69800;DHT22;67217;51.008;4.644;2023-02-01T05:30:17;6.00;80.60
69800;DHT22;67217;51.008;4.644;2023-02-01T05:32:45;6.00;80.30
69800;DHT22;67217;51.008;4.644;2023-02-01T05:35:13;5.90;80.70
69800;DHT22;67217;51.008;4.644;2023-02-01T05:37:41;5.90;80.80
69800;DHT22;67217;51.008;4.644;2023-02-01T05:40:09;5.90;80.80
69800;DHT22;67217;51.008;4.644;2023-02-01T05:42:37;5.80;80.80
69800;DHT22;67217;51.008;4.644;2023-02-01T05:45:06;5.80;81.20
69800;DHT22;67217;51.008;4.644;2023-02-01T05:47:34;5.80;80.80
69800;DHT22;67217;51.008;4.644;2023-02-01T05:50:04;5.90;80.80
69800;DHT22;67217;51.008;4.644;2023-02-01T05:52:32;5.80;81.10
69800;DHT22;67217;51.008;4.644;2023-02-01T05:55:00;5.90;80.90
69800;DHT22;67217;51.008;4.644;2023-02-01T05:57:27;5.70;81.40
69800;DHT22;67217;51.008;4.644;2023-02-01T05:59:56;5.70;81.50
69800;DHT22;67217;51.008;4.644;2023-02-01T06:02:24;5.70;81.90
69800;DHT22;67217;51.008;4.644;2023-02-01T06:04:53;5.70;81.90
69800;DHT22;67217;51.008;4.644;2023-02-01T06:07:21;5.80;81.10
69800;DHT22;67217;51.008;4.644;2023-02-01T06:09:49;5.80;80.80
69800;DHT22;67217;51.008;4.644;2023-02-01T06:12:16;5.80;80.70
69800;DHT22;67217;51.008;4.644;2023-02-01T06:14:44;5.90;80.10
69800;DHT22;67217;51.008;4.644;2023-02-01T06:17:12;5.90;80.50
69800;DHT22;67217;51.008;4.644;2023-02-01T06:19:40;5.90;80.70
69800;DHT22;67217;51.008;4.644;2023-02-01T06:22:08;5.80;80.80
69800;DHT22;67217;51.008;4.644;2023-02-01T06:24:36;5.90;80.30
69800;DHT22;67217;51.008;4.644;2023-02-01T06:27:04;5.90;79.90
69800;DHT22;67217;51.008;4.644;2023-02-01T06:29:32;5.80;80.80
69800;DHT22;67217;51.008;4.644;2023-02-01T06:32:00;5.80;80.90
69800;DHT22;67217;51.008;4.644;2023-02-01T06:34:28;5.80;80.90
69800;DHT22;67217;51.008;4.644;2023-02-01T06:36:56;5.80;80.70
69800;DHT22;67217;51.008;4.644;2023-02-01T06:39:24;5.70;81.40
69800;DHT22;67217;51.008;4.644;2023-02-01T06:41:53;5.80;81.00
69800;DHT22;67217;51.008;4.644;2023-02-01T06:44:22;5.70;81.10
69800;DHT22;67217;51.008;4.644;2023-02-01T06:46:50;5.60;81.40
69800;DHT22;67217;51.008;4.644;2023-02-01T06:49:18;5.60;81.50
69800;DHT22;67217;51.008;4.644;2023-02-01T06:51:46;5.70;81.30
69800;DHT22;67217;51.008;4.644;2023-02-01T06:54:14;5.60;81.80
69800;DHT22;67217;51.008;4.644;2023-02-01T06:56:42;5.50;82.10
69800;DHT22;67217;51.008;4.644;2023-02-01T06:59:10;5.40;82.60
69800;DHT22;67217;51.008;4.644;2023-02-01T07:01:39;5.40;82.60
69800;DHT22;67217;51.008;4.644;2023-02-01T07:04:10;5.50;82.30
69800;DHT22;67217;51.008;4.644;2023-02-01T07:06:39;5.60;81.70
69800;DHT22;67217;51.008;4.644;2023-02-01T07:09:07;5.60;81.80
69800;DHT22;67217;51.008;4.644;2023-02-01T07:11:35;5.60;81.70
69800;DHT22;67217;51.008;4.644;2023-02-01T07:14:04;5.60;81.80
69800;DHT22;67217;51.008;4.644;2023-02-01T07:16:32;5.40;82.60
69800;DHT22;67217;51.008;4.644;2023-02-01T07:19:00;5.50;82.10
69800;DHT22;67217;51.008;4.644;2023-02-01T07:21:28;5.50;82.00
69800;DHT22;67217;51.008;4.644;2023-02-01T07:23:57;5.50;81.90
69800;DHT22;67217;51.008;4.644;2023-02-01T07:26:25;5.60;81.50
69800;DHT22;67217;51.008;4.644;2023-02-01T07:28:53;5.60;81.40
69800;DHT22;67217;51.008;4.644;2023-02-01T07:31:21;5.60;81.60
69800;DHT22;67217;51.008;4.644;2023-02-01T07:33:49;5.70;81.30
69800;DHT22;67217;51.008;4.644;2023-02-01T07:36:18;5.70;81.60
69800;DHT22;67217;51.008;4.644;2023-02-01T07:38:46;5.70;81.50
69800;DHT22;67217;51.008;4.644;2023-02-01T07:41:15;5.70;81.40
69800;DHT22;67217;51.008;4.644;2023-02-01T07:43:42;5.70;81.20
69800;DHT22;67217;51.008;4.644;2023-02-01T07:46:11;5.80;81.30
69800;DHT22;67217;51.008;4.644;2023-02-01T07:48:39;5.70;81.60
69800;DHT22;67217;51.008;4.644;2023-02-01T07:51:13;5.70;81.90
69800;DHT22;67217;51.008;4.644;2023-02-01T07:53:38;5.80;80.90
69800;DHT22;67217;51.008;4.644;2023-02-01T07:56:16;5.90;80.90
69800;DHT22;67217;51.008;4.644;2023-02-01T07:58:39;5.90;80.90
69800;DHT22;67217;51.008;4.644;2023-02-01T08:01:15;6.00;80.30
69800;DHT22;67217;51.008;4.644;2023-02-01T08:03:56;6.10;79.70
69800;DHT22;67217;51.008;4.644;2023-02-01T08:06:20;6.20;79.80
69800;DHT22;67217;51.008;4.644;2023-02-01T08:08:49;6.30;79.00
69800;DHT22;67217;51.008;4.644;2023-02-01T08:11:18;6.40;78.80
69800;DHT22;67217;51.008;4.644;2023-02-01T08:13:46;6.40;79.10
69800;DHT22;67217;51.008;4.644;2023-02-01T08:16:16;6.40;79.00
69800;DHT22;67217;51.008;4.644;2023-02-01T08:18:43;6.50;78.70
69800;DHT22;67217;51.008;4.644;2023-02-01T08:21:13;6.50;78.50
69800;DHT22;67217;51.008;4.644;2023-02-01T08:23:41;6.50;78.60
69800;DHT22;67217;51.008;4.644;2023-02-01T08:26:13;6.60;78.10
69800;DHT22;67217;51.008;4.644;2023-02-01T08:28:43;6.70;77.80
69800;DHT22;67217;51.008;4.644;2023-02-01T08:31:15;6.60;78.20
69800;DHT22;67217;51.008;4.644;2023-02-01T08:33:44;6.70;78.30
69800;DHT22;67217;51.008;4.644;2023-02-01T08:36:12;6.70;78.10
69800;DHT22;67217;51.008;4.644;2023-02-01T08:38:40;6.60;78.10
69800;DHT22;67217;51.008;4.644;2023-02-01T08:41:14;6.70;78.00
69800;DHT22;67217;51.008;4.644;2023-02-01T08:43:43;6.70;77.50
69800;DHT22;67217;51.008;4.644;2023-02-01T08:46:11;6.70;77.70
69800;DHT22;67217;51.008;4.644;2023-02-01T08:48:39;6.90;77.20
69800;DHT22;67217;51.008;4.644;2023-02-01T08:51:12;6.90;77.30
69800;DHT22;67217;51.008;4.644;2023-02-01T08:53:40;6.90;77.20
69800;DHT22;67217;51.008;4.644;2023-02-01T08:56:10;7.10;76.80
69800;DHT22;67217;51.008;4.644;2023-02-01T08:58:38;7.10;76.90
69800;DHT22;67217;51.008;4.644;2023-02-01T09:01:09;7.10;77.50
69800;DHT22;67217;51.008;4.644;2023-02-01T09:03:37;7.30;76.60
69800;DHT22;67217;51.008;4.644;2023-02-01T09:06:07;7.30;76.00
69800;DHT22;67217;51.008;4.644;2023-02-01T09:08:36;7.30;75.80
69800;DHT22;67217;51.008;4.644;2023-02-01T09:11:06;7.40;76.00
69800;DHT22;67217;51.008;4.644;2023-02-01T09:13:34;7.50;75.50
69800;DHT22;67217;51.008;4.644;2023-02-01T09:16:03;7.50;75.10
69800;DHT22;67217;51.008;4.644;2023-02-01T09:18:31;7.50;75.10
69800;DHT22;67217;51.008;4.644;2023-02-01T09:20:59;7.40;75.60
69800;DHT22;67217;51.008;4.644;2023-02-01T09:23:27;7.40;76.40
69800;DHT22;67217;51.008;4.644;2023-02-01T09:25:58;7.50;75.80
69800;DHT22;67217;51.008;4.644;2023-02-01T09:28:24;7.60;75.30
69800;DHT22;67217;51.008;4.644;2023-02-01T09:30:59;7.70;75.20
69800;DHT22;67217;51.008;4.644;2023-02-01T09:33:28;7.70;74.80
69800;DHT22;67217;51.008;4.644;2023-02-01T09:35:58;7.80;74.70
69800;DHT22;67217;51.008;4.644;2023-02-01T09:38:27;7.70;74.70
69800;DHT22;67217;51.008;4.644;2023-02-01T09:40:55;7.70;74.20
69800;DHT22;67217;51.008;4.644;2023-02-01T09:43:48;7.70;74.40
69800;DHT22;67217;51.008;4.644;2023-02-01T09:48:52;7.90;73.80
69800;DHT22;67217;51.008;4.644;2023-02-01T09:51:22;7.80;74.60
69800;DHT22;67217;51.008;4.644;2023-02-01T09:53:58;7.80;73.90
69800;DHT22;67217;51.008;4.644;2023-02-01T09:56:30;8.00;73.90
69800;DHT22;67217;51.008;4.644;2023-02-01T09:59:26;8.10;73.10
69800;DHT22;67217;51.008;4.644;2023-02-01T10:01:53;8.10;73.10
69800;DHT22;67217;51.008;4.644;2023-02-01T10:04:22;8.10;73.00
69800;DHT22;67217;51.008;4.644;2023-02-01T10:09:42;8.00;73.60
69800;DHT22;67217;51.008;4.644;2023-02-01T10:15:21;8.20;73.00
69800;DHT22;67217;51.008;4.644;2023-02-01T10:21:02;8.10;73.90
69800;DHT22;67217;51.008;4.644;2023-02-01T10:23:35;8.30;72.60
69800;DHT22;67217;51.008;4.644;2023-02-01T10:26:24;8.30;72.70
69800;DHT22;67217;51.008;4.644;2023-02-01T10:28:59;8.40;72.80
69800;DHT22;67217;51.008;4.644;2023-02-01T10:31:25;8.40;72.30
69800;DHT22;67217;51.008;4.644;2023-02-01T10:33:56;8.50;72.00
69800;DHT22;67217;51.008;4.644;2023-02-01T10:36:29;8.60;71.80
69800;DHT22;67217;51.008;4.644;2023-02-01T10:39:00;8.70;71.70
69800;DHT22;67217;51.008;4.644;2023-02-01T10:41:34;8.70;71.70
69800;DHT22;67217;51.008;4.644;2023-02-01T10:44:27;8.80;70.80
69800;DHT22;67217;51.008;4.644;2023-02-01T10:46:34;9.00;70.10
69800;DHT22;67217;51.008;4.644;2023-02-01T10:49:04;9.00;70.20
69800;DHT22;67217;51.008;4.644;2023-02-01T10:52:05;9.00;69.50
69800;DHT22;67217;51.008;4.644;2023-02-01T10:54:36;9.00;69.40
69800;DHT22;67217;51.008;4.644;2023-02-01T10:57:10;9.10;69.30
69800;DHT22;67217;51.008;4.644;2023-02-01T10:59:38;9.30;68.80
69800;DHT22;67217;51.008;4.644;2023-02-01T11:05:09;9.60;68.30
69800;DHT22;67217;51.008;4.644;2023-02-01T11:07:40;9.70;67.20
69800;DHT22;67217;51.008;4.644;2023-02-01T11:10:13;9.90;66.50
69800;DHT22;67217;51.008;4.644;2023-02-01T11:12:40;10.20;64.80
69800;DHT22;67217;51.008;4.644;2023-02-01T11:15:25;10.30;63.70
69800;DHT22;67217;51.008;4.644;2023-02-01T11:17:53;10.50;63.30
69800;DHT22;67217;51.008;4.644;2023-02-01T11:20:41;10.60;61.50
69800;DHT22;67217;51.008;4.644;2023-02-01T11:23:25;10.70;61.80
69800;DHT22;67217;51.008;4.644;2023-02-01T11:25:52;10.80;60.90
69800;DHT22;67217;51.008;4.644;2023-02-01T11:28:22;10.60;60.70
69800;DHT22;67217;51.008;4.644;2023-02-01T11:30:53;10.50;61.10
69800;DHT22;67217;51.008;4.644;2023-02-01T11:33:24;10.90;60.70
69800;DHT22;67217;51.008;4.644;2023-02-01T11:35:53;11.20;59.10
69800;DHT22;67217;51.008;4.644;2023-02-01T11:38:32;11.20;59.30
69800;DHT22;67217;51.008;4.644;2023-02-01T11:41:23;11.30;58.90
69800;DHT22;67217;51.008;4.644;2023-02-01T11:43:54;11.30;58.60
69800;DHT22;67217;51.008;4.644;2023-02-01T11:46:27;11.40;58.70
69800;DHT22;67217;51.008;4.644;2023-02-01T11:48:55;11.20;59.30
69800;DHT22;67217;51.008;4.644;2023-02-01T11:51:54;11.80;58.40
69800;DHT22;67217;51.008;4.644;2023-02-01T11:54:35;12.30;56.00
69800;DHT22;67217;51.008;4.644;2023-02-01T11:57:11;11.90;56.50
69800;DHT22;67217;51.008;4.644;2023-02-01T11:59:48;11.40;59.00
69800;DHT22;67217;51.008;4.644;2023-02-01T12:07:48;11.80;56.70
69800;DHT22;67217;51.008;4.644;2023-02-01T12:13:12;10.90;58.80
69800;DHT22;67217;51.008;4.644;2023-02-01T12:15:55;10.70;60.00
69800;DHT22;67217;51.008;4.644;2023-02-01T12:21:28;10.30;61.40
69800;DHT22;67217;51.008;4.644;2023-02-01T12:32:15;10.20;61.10
69800;DHT22;67217;51.008;4.644;2023-02-01T12:37:34;10.20;60.50
69800;DHT22;67217;51.008;4.644;2023-02-01T12:40:25;10.10;61.60
69800;DHT22;67217;51.008;4.644;2023-02-01T12:43:18;10.10;60.30
69800;DHT22;67217;51.008;4.644;2023-02-01T12:45:55;10.00;60.70
69800;DHT22;67217;51.008;4.644;2023-02-01T12:51:00;10.00;59.60
69800;DHT22;67217;51.008;4.644;2023-02-01T12:56:04;10.00;60.40
69800;DHT22;67217;51.008;4.644;2023-02-01T13:04:27;10.10;60.00
69800;DHT22;67217;51.008;4.644;2023-02-01T13:07:12;10.20;60.30
69800;DHT22;67217;51.008;4.644;2023-02-01T13:09:55;10.10;60.00
69800;DHT22;67217;51.008;4.644;2023-02-01T13:12:38;10.00;60.20
69800;DHT22;67217;51.008;4.644;2023-02-01T13:15:05;10.10;60.30
69800;DHT22;67217;51.008;4.644;2023-02-01T13:17:38;10.20;60.50
69800;DHT22;67217;51.008;4.644;2023-02-01T13:23:07;10.30;60.10
69800;DHT22;67217;51.008;4.644;2023-02-01T13:25:40;10.30;59.60
69800;DHT22;67217;51.008;4.644;2023-02-01T13:28:14;10.40;60.40
69800;DHT22;67217;51.008;4.644;2023-02-01T13:33:32;10.40;59.80
69800;DHT22;67217;51.008;4.644;2023-02-01T13:44:25;10.30;59.50
69800;DHT22;67217;51.008;4.644;2023-02-01T13:46:46;10.30;59.60
69800;DHT22;67217;51.008;4.644;2023-02-01T13:49:28;10.30;59.30
69800;DHT22;67217;51.008;4.644;2023-02-01T13:51:58;10.30;59.80
69800;DHT22;67217;51.008;4.644;2023-02-01T13:56:58;10.40;59.90
69800;DHT22;67217;51.008;4.644;2023-02-01T14:05:54;10.50;59.80
69800;DHT22;67217;51.008;4.644;2023-02-01T14:08:10;10.40;60.00
69800;DHT22;67217;51.008;4.644;2023-02-01T14:13:30;10.40;61.00
69800;DHT22;67217;51.008;4.644;2023-02-01T14:21:30;10.40;59.90
69800;DHT22;67217;51.008;4.644;2023-02-01T14:24:12;10.40;60.00
69800;DHT22;67217;51.008;4.644;2023-02-01T14:26:44;10.30;60.90
69800;DHT22;67217;51.008;4.644;2023-02-01T14:42:28;10.20;61.20
69800;DHT22;67217;51.008;4.644;2023-02-01T14:47:43;10.10;60.90
69800;DHT22;67217;51.008;4.644;2023-02-01T14:50:18;10.10;61.50
69800;DHT22;67217;51.008;4.644;2023-02-01T14:55:24;10.20;61.10
69800;DHT22;67217;51.008;4.644;2023-02-01T14:57:52;10.00;61.80
69800;DHT22;67217;51.008;4.644;2023-02-01T15:00:24;10.10;61.80
69800;DHT22;67217;51.008;4.644;2023-02-01T15:02:54;10.00;62.20
69800;DHT22;67217;51.008;4.644;2023-02-01T15:05:33;10.00;62.30
69800;DHT22;67217;51.008;4.644;2023-02-01T15:08:05;9.90;62.70
69800;DHT22;67217;51.008;4.644;2023-02-01T15:10:39;10.00;62.70
69800;DHT22;67217;51.008;4.644;2023-02-01T15:13:03;9.90;63.10
69800;DHT22;67217;51.008;4.644;2023-02-01T15:15:32;9.80;63.50
69800;DHT22;67217;51.008;4.644;2023-02-01T15:18:01;9.90;63.50
69800;DHT22;67217;51.008;4.644;2023-02-01T15:20:32;9.90;63.30
69800;DHT22;67217;51.008;4.644;2023-02-01T15:23:03;9.90;63.00
69800;DHT22;67217;51.008;4.644;2023-02-01T15:25:37;9.80;63.00
69800;DHT22;67217;51.008;4.644;2023-02-01T15:28:08;9.80;64.10
69800;DHT22;67217;51.008;4.644;2023-02-01T15:30:35;10.00;63.60
69800;DHT22;67217;51.008;4.644;2023-02-01T15:35:47;9.90;63.30
69800;DHT22;67217;51.008;4.644;2023-02-01T15:41:08;9.80;64.00
69800;DHT22;67217;51.008;4.644;2023-02-01T15:46:45;9.80;63.60
69800;DHT22;67217;51.008;4.644;2023-02-01T15:49:27;9.80;64.60
69800;DHT22;67217;51.008;4.644;2023-02-01T15:51:56;9.80;64.30
69800;DHT22;67217;51.008;4.644;2023-02-01T15:54:31;9.70;64.60
69800;DHT22;67217;51.008;4.644;2023-02-01T15:57:00;9.70;64.60
69800;DHT22;67217;51.008;4.644;2023-02-01T15:59:42;9.70;64.70
69800;DHT22;67217;51.008;4.644;2023-02-01T16:02:02;9.60;65.20
69800;DHT22;67217;51.008;4.644;2023-02-01T16:04:30;9.70;65.00
69800;DHT22;67217;51.008;4.644;2023-02-01T16:07:01;9.60;65.60
69800;DHT22;67217;51.008;4.644;2023-02-01T16:09:40;9.60;65.10
69800;DHT22;67217;51.008;4.644;2023-02-01T16:12:22;9.60;65.60
69800;DHT22;67217;51.008;4.644;2023-02-01T16:14:43;9.60;65.70
69800;DHT22;67217;51.008;4.644;2023-02-01T16:17:11;9.60;65.90
69800;DHT22;67217;51.008;4.644;2023-02-01T16:19:39;9.70;65.00
69800;DHT22;67217;51.008;4.644;2023-02-01T16:22:07;9.70;65.10
69800;DHT22;67217;51.008;4.644;2023-02-01T16:24:35;9.60;65.40
69800;DHT22;67217;51.008;4.644;2023-02-01T16:27:04;9.60;65.50
69800;DHT22;67217;51.008;4.644;2023-02-01T16:29:33;9.60;65.50
69800;DHT22;67217;51.008;4.644;2023-02-01T16:32:01;9.60;65.40
69800;DHT22;67217;51.008;4.644;2023-02-01T16:34:32;9.60;65.50
69800;DHT22;67217;51.008;4.644;2023-02-01T16:37:03;9.70;65.10
69800;DHT22;67217;51.008;4.644;2023-02-01T16:39:31;9.70;65.40
69800;DHT22;67217;51.008;4.644;2023-02-01T16:41:59;9.60;65.40
69800;DHT22;67217;51.008;4.644;2023-02-01T16:44:28;9.60;65.60
69800;DHT22;67217;51.008;4.644;2023-02-01T16:46:56;9.60;66.10
69800;DHT22;67217;51.008;4.644;2023-02-01T16:49:25;9.70;65.60
69800;DHT22;67217;51.008;4.644;2023-02-01T16:51:56;9.60;65.90
69800;DHT22;67217;51.008;4.644;2023-02-01T16:54:24;9.60;65.70
69800;DHT22;67217;51.008;4.644;2023-02-01T16:56:53;9.70;66.10
69800;DHT22;67217;51.008;4.644;2023-02-01T16:59:21;9.70;66.70
69800;DHT22;67217;51.008;4.644;2023-02-01T17:01:48;9.70;65.70
69800;DHT22;67217;51.008;4.644;2023-02-01T17:04:16;9.60;65.90
69800;DHT22;67217;51.008;4.644;2023-02-01T17:06:46;9.70;65.70
69800;DHT22;67217;51.008;4.644;2023-02-01T17:09:15;9.80;65.60
69800;DHT22;67217;51.008;4.644;2023-02-01T17:11:43;9.70;65.90
69800;DHT22;67217;51.008;4.644;2023-02-01T17:14:19;9.70;66.30
69800;DHT22;67217;51.008;4.644;2023-02-01T17:16:49;9.80;66.00
69800;DHT22;67217;51.008;4.644;2023-02-01T17:19:20;9.80;66.10
69800;DHT22;67217;51.008;4.644;2023-02-01T17:21:51;9.70;66.10
69800;DHT22;67217;51.008;4.644;2023-02-01T17:24:22;9.60;66.40
69800;DHT22;67217;51.008;4.644;2023-02-01T17:26:51;9.60;66.60
69800;DHT22;67217;51.008;4.644;2023-02-01T17:29:19;9.60;66.90
69800;DHT22;67217;51.008;4.644;2023-02-01T17:31:49;9.50;67.00
69800;DHT22;67217;51.008;4.644;2023-02-01T17:34:17;9.50;67.60
69800;DHT22;67217;51.008;4.644;2023-02-01T17:36:46;9.40;68.20
69800;DHT22;67217;51.008;4.644;2023-02-01T17:39:15;9.40;68.20
69800;DHT22;67217;51.008;4.644;2023-02-01T17:42:01;9.40;68.40
69800;DHT22;67217;51.008;4.644;2023-02-01T17:44:30;9.40;68.70
69800;DHT22;67217;51.008;4.644;2023-02-01T17:46:58;9.50;68.20
69800;DHT22;67217;51.008;4.644;2023-02-01T17:49:26;9.50;68.60
69800;DHT22;67217;51.008;4.644;2023-02-01T17:51:57;9.40;68.70
69800;DHT22;67217;51.008;4.644;2023-02-01T17:54:25;9.40;68.90
69800;DHT22;67217;51.008;4.644;2023-02-01T17:56:53;9.40;69.20
69800;DHT22;67217;51.008;4.644;2023-02-01T17:59:22;9.40;69.20
69800;DHT22;67217;51.008;4.644;2023-02-01T18:01:50;9.30;69.60
69800;DHT22;67217;51.008;4.644;2023-02-01T18:04:19;9.40;69.20
69800;DHT22;67217;51.008;4.644;2023-02-01T18:06:48;9.50;69.30
69800;DHT22;67217;51.008;4.644;2023-02-01T18:09:15;9.50;69.20
69800;DHT22;67217;51.008;4.644;2023-02-01T18:11:43;9.40;69.80
69800;DHT22;67217;51.008;4.644;2023-02-01T18:14:14;9.40;70.50
69800;DHT22;67217;51.008;4.644;2023-02-01T18:16:42;9.40;71.00
69800;DHT22;67217;51.008;4.644;2023-02-01T18:19:09;9.40;70.90